createdAt,value
2023-04-23T00:01:26.182Z,11.50
2023-04-23T00:03:57.915Z,11.50
2023-04-23T00:06:26.235Z,11.60
2023-04-23T00:08:53.522Z,10.70
2023-04-23T00:11:21.234Z,11.40
2023-04-23T00:13:48.899Z,11.80
2023-04-23T00:16:15.827Z,11.20
2023-04-23T00:18:42.748Z,11.00
2023-04-23T00:21:10.091Z,10.70
2023-04-23T00:23:37.927Z,11.10
2023-04-23T00:26:04.987Z,11.60
2023-04-23T00:28:31.766Z,11.30
2023-04-23T00:30:58.555Z,11.20
2023-04-23T00:33:26.264Z,11.50
2023-04-23T00:35:52.973Z,12.00
2023-04-23T00:38:20.714Z,11.40
2023-04-23T00:40:47.431Z,11.70
2023-04-23T00:43:15.100Z,12.00
2023-04-23T00:45:41.903Z,11.10
2023-04-23T00:48:08.636Z,11.30
2023-04-23T00:50:35.402Z,11.70
2023-04-23T00:53:02.436Z,11.20
2023-04-23T00:55:29.407Z,11.70
2023-04-23T00:57:56.111Z,13.50
2023-04-23T01:00:22.851Z,13.20
2023-04-23T01:02:50.021Z,13.60
2023-04-23T01:05:17.261Z,11.70
2023-04-23T01:07:44.865Z,13.30
2023-04-23T01:10:11.697Z,13.60
2023-04-23T01:12:38.894Z,12.70
2023-04-23T01:15:08.107Z,13.00
2023-04-23T01:17:34.927Z,12.20
2023-04-23T01:20:01.692Z,12.70
2023-04-23T01:22:28.856Z,12.90
2023-04-23T01:24:55.700Z,13.70
2023-04-23T01:27:24.282Z,12.90
2023-04-23T01:29:50.914Z,14.20
2023-04-23T01:32:18.253Z,13.40
2023-04-23T01:34:46.235Z,13.60
2023-04-23T01:37:13.031Z,13.00
2023-04-23T01:39:39.870Z,12.90
2023-04-23T01:42:06.752Z,13.20
2023-04-23T01:44:33.518Z,13.50
2023-04-23T01:47:00.266Z,13.50
2023-04-23T01:49:27.131Z,14.50
2023-04-23T01:51:53.854Z,14.10
2023-04-23T01:54:20.691Z,14.50
2023-04-23T01:56:54.059Z,14.30
2023-04-23T01:59:22.199Z,14.70
2023-04-23T02:01:49.075Z,14.00
2023-04-23T02:04:17.153Z,14.60
2023-04-23T02:06:46.419Z,14.70
2023-04-23T02:09:13.195Z,15.70
2023-04-23T02:11:40.044Z,18.20
2023-04-23T02:14:07.086Z,16.80
2023-04-23T02:16:34.574Z,16.60
2023-04-23T02:19:01.287Z,18.70
2023-04-23T02:21:27.978Z,18.10
2023-04-23T02:23:54.781Z,16.30
2023-04-23T02:26:22.227Z,16.80
2023-04-23T02:28:48.973Z,17.60
2023-04-23T02:31:16.030Z,15.80
2023-04-23T02:33:43.779Z,15.60
2023-04-23T02:36:11.764Z,16.40
2023-04-23T02:38:41.708Z,17.20
2023-04-23T02:41:08.648Z,18.80
2023-04-23T02:43:35.918Z,19.00
2023-04-23T02:46:07.748Z,18.50
2023-04-23T02:48:41.934Z,20.30
2023-04-23T02:51:09.795Z,18.50
2023-04-23T02:53:36.584Z,18.10
2023-04-23T02:56:03.474Z,17.80
2023-04-23T02:58:30.707Z,17.00
2023-04-23T03:00:58.721Z,16.90
2023-04-23T03:03:31.105Z,17.90
2023-04-23T03:05:58.542Z,18.10
2023-04-23T03:08:25.170Z,17.00
2023-04-23T03:10:51.820Z,17.40
2023-04-23T03:13:18.623Z,14.90
2023-04-23T03:15:45.291Z,15.20
2023-04-23T03:18:12.058Z,14.50
2023-04-23T03:20:38.957Z,14.40
2023-04-23T03:23:08.630Z,14.70
2023-04-23T03:25:35.581Z,14.30
2023-04-23T03:28:02.490Z,12.60
2023-04-23T03:30:29.742Z,12.80
2023-04-23T03:32:56.922Z,12.60
2023-04-23T03:35:24.334Z,13.30
2023-04-23T03:37:51.854Z,12.80
2023-04-23T03:40:19.277Z,12.80
2023-04-23T03:42:47.591Z,12.00
2023-04-23T03:45:16.087Z,12.20
2023-04-23T03:47:43.317Z,12.30
2023-04-23T03:50:12.241Z,11.80
2023-04-23T03:52:39.649Z,12.20
2023-04-23T03:55:08.052Z,12.60
2023-04-23T03:57:42.179Z,13.20
2023-04-23T04:00:18.715Z,12.30
2023-04-23T04:02:45.845Z,12.10
2023-04-23T04:05:13.236Z,11.30
2023-04-23T04:07:40.695Z,10.80
2023-04-23T04:10:07.648Z,11.40
2023-04-23T04:12:35.877Z,11.10
2023-04-23T04:15:03.426Z,11.20
2023-04-23T04:17:30.679Z,11.10
2023-04-23T04:19:57.367Z,10.80
2023-04-23T04:22:24.168Z,11.20
2023-04-23T04:24:52.048Z,10.90
2023-04-23T04:27:18.743Z,11.10
2023-04-23T04:29:45.613Z,10.50
2023-04-23T04:32:12.994Z,11.10
2023-04-23T04:34:40.012Z,11.00
2023-04-23T04:37:07.125Z,10.80
2023-04-23T04:39:34.297Z,10.70
2023-04-23T04:42:02.354Z,11.10
2023-04-23T04:44:30.092Z,12.00
2023-04-23T04:46:56.967Z,11.50
2023-04-23T04:49:23.671Z,12.10
2023-04-23T04:51:50.753Z,11.90
2023-04-23T04:54:17.524Z,11.20
2023-04-23T04:56:44.203Z,11.70
2023-04-23T04:59:11.125Z,11.70
2023-04-23T05:01:37.885Z,11.10
2023-04-23T05:04:05.088Z,11.40
2023-04-23T05:06:32.532Z,10.60
2023-04-23T05:08:59.413Z,10.90
2023-04-23T05:11:26.002Z,11.90
2023-04-23T05:13:52.706Z,12.50
2023-04-23T05:16:19.483Z,13.50
2023-04-23T05:18:46.182Z,14.00
2023-04-23T05:21:14.949Z,12.80
2023-04-23T05:23:41.602Z,12.70
2023-04-23T05:26:08.284Z,14.10
2023-04-23T05:28:35.507Z,13.70
2023-04-23T05:31:02.653Z,12.90
2023-04-23T05:33:33.546Z,14.10
2023-04-23T05:36:07.652Z,12.10
2023-04-23T05:38:34.382Z,11.40
2023-04-23T05:41:01.209Z,11.30
2023-04-23T05:43:27.908Z,9.90
2023-04-23T05:45:54.738Z,10.50
2023-04-23T05:48:21.406Z,9.80
2023-04-23T05:50:49.050Z,9.90
2023-04-23T05:53:15.761Z,10.30
2023-04-23T05:55:42.529Z,10.10
2023-04-23T05:58:09.218Z,8.70
2023-04-23T06:00:36.837Z,8.30
2023-04-23T06:03:03.873Z,8.20
2023-04-23T06:05:31.452Z,8.10
2023-04-23T06:07:58.251Z,7.40
2023-04-23T06:10:24.810Z,7.90
2023-04-23T06:12:53.567Z,8.10
2023-04-23T06:15:20.362Z,7.20
2023-04-23T06:17:47.147Z,7.10
2023-04-23T06:20:13.933Z,8.10
2023-04-23T06:22:40.715Z,7.80
2023-04-23T06:25:07.938Z,8.20
2023-04-23T06:27:34.835Z,8.00
2023-04-23T06:30:06.770Z,8.10
2023-04-23T06:32:34.021Z,7.50
2023-04-23T06:35:02.300Z,7.60
2023-04-23T06:37:31.080Z,7.90
2023-04-23T06:39:58.821Z,7.70
2023-04-23T06:42:25.549Z,7.40
2023-04-23T06:45:19.268Z,8.20
2023-04-23T06:47:46.178Z,8.00
2023-04-23T06:50:12.845Z,8.10
2023-04-23T06:52:40.434Z,8.30
2023-04-23T06:55:07.909Z,8.70
2023-04-23T06:57:35.690Z,8.80
2023-04-23T07:00:03.048Z,8.60
2023-04-23T07:02:34.346Z,7.80
2023-04-23T07:05:01.013Z,8.40
2023-04-23T07:07:28.170Z,8.90
2023-04-23T07:09:54.986Z,8.60
2023-04-23T07:12:21.596Z,8.50
2023-04-23T07:14:48.286Z,9.20
2023-04-23T07:17:15.111Z,8.70
2023-04-23T07:19:41.794Z,8.30
2023-04-23T07:22:08.452Z,8.50
2023-04-23T07:24:35.187Z,8.60
2023-04-23T07:27:02.211Z,8.90
2023-04-23T07:29:28.971Z,8.80
2023-04-23T07:31:56.023Z,7.60
2023-04-23T07:34:22.967Z,8.20
2023-04-23T07:36:49.910Z,7.90
2023-04-23T07:39:16.756Z,8.40
2023-04-23T07:41:43.532Z,8.30
2023-04-23T07:44:10.355Z,8.00
2023-04-23T07:46:37.010Z,8.70
2023-04-23T07:49:04.098Z,8.10
2023-04-23T07:51:31.392Z,8.30
2023-04-23T07:53:58.402Z,7.70
2023-04-23T07:56:25.243Z,8.10
2023-04-23T07:58:53.362Z,8.10
2023-04-23T08:01:21.187Z,8.00
2023-04-23T08:03:48.110Z,8.70
2023-04-23T08:06:14.990Z,7.90
2023-04-23T08:08:41.909Z,8.90
2023-04-23T08:11:08.702Z,7.50
2023-04-23T08:13:35.542Z,8.00
2023-04-23T08:16:02.362Z,7.60
2023-04-23T08:18:29.206Z,7.30
2023-04-23T08:20:56.883Z,6.80
2023-04-23T08:23:23.908Z,6.90
2023-04-23T08:25:50.741Z,7.00
2023-04-23T08:28:18.662Z,6.90
2023-04-23T08:30:45.970Z,7.40
2023-04-23T08:33:13.229Z,7.00
2023-04-23T08:35:39.945Z,6.40
2023-04-23T08:38:06.597Z,6.30
2023-04-23T08:40:35.838Z,6.50
2023-04-23T08:43:04.385Z,6.00
2023-04-23T08:45:31.096Z,5.50
2023-04-23T08:48:01.600Z,5.80
2023-04-23T08:50:29.116Z,5.20
2023-04-23T08:52:57.196Z,6.00
2023-04-23T08:55:23.963Z,5.10
2023-04-23T08:57:51.021Z,5.80
2023-04-23T09:00:19.117Z,5.40
2023-04-23T09:02:46.947Z,5.90
2023-04-23T09:05:14.001Z,5.90
2023-04-23T09:07:41.232Z,5.20
2023-04-23T09:10:08.981Z,4.80
2023-04-23T09:12:35.797Z,5.40
2023-04-23T09:15:09.869Z,5.40
2023-04-23T09:17:44.545Z,5.60
2023-04-23T09:20:12.177Z,6.00
2023-04-23T09:22:50.157Z,4.80
2023-04-23T09:25:18.360Z,3.70
2023-04-23T09:27:54.925Z,2.40
2023-04-23T09:30:22.831Z,1.70
2023-04-23T09:32:49.877Z,2.00
2023-04-23T09:35:17.044Z,1.80
2023-04-23T09:37:48.125Z,2.10
2023-04-23T09:40:19.491Z,2.80
2023-04-23T09:42:50.400Z,3.30
2023-04-23T09:45:17.065Z,2.50
2023-04-23T09:47:50.962Z,3.00
2023-04-23T09:50:18.561Z,2.90
2023-04-23T09:52:45.455Z,2.60
2023-04-23T09:55:12.274Z,2.90
2023-04-23T09:57:43.059Z,2.80
2023-04-23T10:00:18.380Z,2.50
2023-04-23T10:05:24.498Z,1.60
2023-04-23T10:07:55.829Z,1.30
2023-04-23T10:10:22.793Z,1.80
2023-04-23T10:12:54.849Z,1.50
2023-04-23T10:15:26.241Z,2.00
2023-04-23T10:17:54.194Z,1.70
2023-04-23T10:20:24.010Z,2.20
2023-04-23T10:22:50.970Z,2.40
2023-04-23T10:25:17.927Z,2.20
2023-04-23T10:27:53.981Z,2.30
2023-04-23T10:30:21.870Z,2.30
2023-04-23T10:32:49.169Z,2.90
2023-04-23T10:35:16.133Z,2.60
2023-04-23T10:37:42.824Z,3.10
2023-04-23T10:40:13.648Z,2.50
2023-04-23T10:42:40.757Z,2.30
2023-04-23T10:47:47.183Z,2.40
2023-04-23T10:50:57.582Z,3.00
2023-04-23T10:53:27.598Z,2.50
2023-04-23T10:56:07.083Z,2.00
2023-04-23T10:58:50.649Z,3.10
2023-04-23T11:01:18.089Z,2.90
2023-04-23T11:03:45.379Z,2.90
2023-04-23T11:06:14.973Z,2.90
2023-04-23T11:08:55.905Z,3.40
2023-04-23T11:11:41.971Z,3.10
2023-04-23T11:14:14.681Z,3.20
2023-04-23T11:16:41.379Z,3.00
2023-04-23T11:32:36.593Z,2.80
2023-04-23T11:35:04.801Z,3.00
2023-04-23T11:37:31.738Z,2.70
2023-04-23T11:39:58.726Z,3.30
2023-04-23T11:42:25.425Z,3.00
2023-04-23T11:44:52.218Z,2.70
2023-04-23T11:47:18.977Z,2.80
2023-04-23T11:49:45.986Z,2.60
2023-04-23T11:52:13.814Z,2.60
2023-04-23T11:54:41.507Z,2.40
2023-04-23T11:57:08.318Z,2.70
2023-04-23T11:59:35.304Z,2.70
2023-04-23T12:02:02.202Z,2.70
2023-04-23T12:04:30.007Z,2.90
2023-04-23T12:06:57.442Z,2.60
2023-04-23T12:09:26.411Z,2.00
2023-04-23T12:11:53.269Z,2.50
2023-04-23T12:14:23.395Z,2.00
2023-04-23T12:16:52.960Z,2.20
2023-04-23T12:19:30.452Z,2.80
2023-04-23T12:22:01.637Z,2.40
2023-04-23T12:24:45.321Z,2.70
2023-04-23T12:27:15.050Z,2.40
2023-04-23T12:29:41.913Z,2.80
2023-04-23T12:32:10.251Z,2.20
2023-04-23T12:34:37.778Z,2.80
2023-04-23T12:37:05.914Z,2.50
2023-04-23T12:39:33.806Z,2.60
2023-04-23T12:42:09.158Z,2.60
2023-04-23T12:47:07.400Z,2.40
2023-04-23T12:49:35.307Z,2.30
2023-04-23T12:52:03.170Z,2.50
2023-04-23T12:54:31.380Z,2.30
2023-04-23T12:57:02.136Z,2.30
2023-04-23T12:59:29.431Z,2.80
2023-04-23T13:01:56.309Z,2.10
2023-04-23T13:04:23.094Z,2.60
2023-04-23T13:06:50.789Z,2.40
2023-04-23T13:09:17.562Z,2.20
2023-04-23T13:11:46.415Z,2.60
2023-04-23T13:14:13.196Z,2.00
2023-04-23T13:16:40.332Z,2.20
2023-04-23T13:19:07.522Z,2.50
2023-04-23T13:21:34.549Z,2.00
2023-04-23T13:24:01.670Z,2.10
2023-04-23T13:26:31.406Z,2.20
2023-04-23T13:28:58.967Z,2.20
2023-04-23T13:31:25.788Z,2.20
2023-04-23T13:33:52.690Z,2.70
2023-04-23T13:36:19.365Z,2.10
2023-04-23T13:38:46.352Z,2.40
2023-04-23T13:41:13.242Z,2.40
2023-04-23T13:43:39.997Z,2.60
2023-04-23T13:46:06.726Z,2.30
2023-04-23T13:48:33.848Z,2.00
2023-04-23T13:51:00.849Z,2.50
2023-04-23T13:53:27.780Z,2.40
2023-04-23T13:55:55.373Z,2.10
2023-04-23T13:58:22.876Z,1.90
2023-04-23T14:00:49.619Z,2.10
2023-04-23T14:03:16.657Z,2.00
2023-04-23T14:05:43.673Z,2.00
2023-04-23T14:08:10.595Z,2.00
2023-04-23T14:10:37.293Z,2.10
2023-04-23T14:13:04.227Z,1.70
2023-04-23T14:15:31.047Z,1.90
2023-04-23T14:17:59.081Z,1.90
2023-04-23T14:20:25.882Z,2.10
2023-04-23T14:23:01.031Z,2.10
2023-04-23T14:25:40.659Z,1.90
2023-04-23T14:28:27.577Z,2.10
2023-04-23T14:30:54.957Z,2.20
2023-04-23T14:33:21.821Z,2.20
2023-04-23T14:35:48.735Z,1.90
2023-04-23T14:38:15.492Z,2.10
2023-04-23T14:40:42.137Z,2.10
2023-04-23T14:45:41.073Z,2.10
2023-04-23T14:48:07.739Z,2.00
2023-04-23T14:50:35.140Z,2.20
2023-04-23T14:53:06.264Z,2.20
2023-04-23T14:55:33.434Z,2.20
2023-04-23T14:58:00.930Z,2.10
2023-04-23T15:00:27.920Z,2.20
2023-04-23T15:02:54.774Z,2.20
2023-04-23T15:05:21.563Z,2.10
2023-04-23T15:07:48.227Z,2.20
2023-04-23T15:10:14.940Z,2.00
2023-04-23T15:12:52.201Z,2.30
2023-04-23T15:15:48.872Z,2.30
2023-04-23T15:18:16.015Z,2.30
2023-04-23T15:20:42.845Z,2.80
2023-04-23T15:23:09.870Z,2.50
2023-04-23T15:25:36.923Z,2.20
2023-04-23T15:28:03.957Z,2.30
2023-04-23T15:30:30.813Z,1.90
2023-04-23T15:32:57.597Z,2.90
2023-04-23T15:35:24.967Z,2.30
2023-04-23T15:37:51.808Z,2.00
2023-04-23T15:40:18.440Z,2.60
2023-04-23T15:42:45.268Z,2.10
2023-04-23T15:45:12.264Z,2.50
2023-04-23T15:47:39.093Z,2.20
2023-04-23T15:50:06.666Z,2.50
2023-04-23T15:52:33.676Z,2.80
2023-04-23T15:55:00.556Z,2.60
2023-04-23T15:57:27.239Z,2.40
2023-04-23T15:59:55.084Z,2.60
2023-04-23T16:02:22.060Z,2.60
2023-04-23T16:04:50.610Z,3.10
2023-04-23T16:07:17.261Z,2.60
2023-04-23T16:09:44.382Z,2.70
2023-04-23T16:12:12.108Z,2.90
2023-04-23T16:14:39.539Z,2.40
2023-04-23T16:17:06.303Z,2.40
2023-04-23T16:19:33.228Z,2.20
2023-04-23T16:22:00.047Z,2.00
2023-04-23T16:24:26.864Z,2.40
2023-04-23T16:26:53.555Z,1.90
2023-04-23T16:29:22.513Z,1.80
2023-04-23T16:31:50.065Z,1.90
2023-04-23T16:34:16.982Z,2.20
2023-04-23T16:36:43.846Z,2.30
2023-04-23T16:39:10.644Z,1.90
2023-04-23T16:41:37.354Z,1.90
2023-04-23T16:44:04.129Z,1.80
2023-04-23T16:46:31.484Z,2.20
2023-04-23T16:48:58.685Z,2.10
2023-04-23T16:51:26.240Z,1.50
2023-04-23T16:53:52.908Z,2.40
2023-04-23T16:56:20.186Z,2.00
2023-04-23T16:58:46.888Z,2.10
2023-04-23T17:01:14.280Z,2.10
2023-04-23T17:03:41.140Z,1.70
2023-04-23T17:06:27.521Z,1.90
2023-04-23T17:08:54.764Z,2.40
2023-04-23T17:11:22.341Z,2.40
2023-04-23T17:13:49.072Z,2.90
2023-04-23T17:16:15.915Z,3.60
2023-04-23T17:18:42.703Z,2.90
2023-04-23T17:21:09.930Z,3.10
2023-04-23T17:23:36.770Z,3.30
2023-04-23T17:26:03.435Z,3.60
2023-04-23T17:28:30.709Z,3.20
2023-04-23T17:30:57.529Z,3.40
2023-04-23T17:33:24.565Z,3.00
2023-04-23T17:35:51.994Z,3.20
2023-04-23T17:38:20.313Z,3.10
2023-04-23T17:40:47.796Z,3.70
2023-04-23T17:43:14.954Z,3.60
2023-04-23T17:45:41.876Z,3.40
2023-04-23T17:48:08.780Z,3.50
2023-04-23T17:50:35.851Z,3.00
2023-04-23T17:53:03.287Z,3.00
2023-04-23T17:55:32.247Z,2.90
2023-04-23T17:58:05.912Z,3.70
2023-04-23T18:00:38.066Z,4.10
2023-04-23T18:03:05.736Z,4.20
2023-04-23T18:05:33.737Z,5.10
2023-04-23T18:08:00.721Z,4.50
2023-04-23T18:10:28.328Z,4.30
2023-04-23T18:12:55.390Z,4.90
2023-04-23T18:15:22.109Z,4.80
2023-04-23T18:17:49.640Z,4.70
2023-04-23T18:20:16.315Z,4.10
2023-04-23T18:22:43.633Z,4.90
2023-04-23T18:25:11.107Z,4.60
2023-04-23T18:27:38.518Z,4.40
2023-04-23T18:30:07.503Z,5.40
2023-04-23T18:32:38.242Z,4.90
2023-04-23T18:35:07.753Z,4.90
2023-04-23T18:37:42.560Z,4.40
2023-04-23T18:40:10.820Z,4.20
2023-04-23T18:42:37.960Z,4.80
2023-04-23T18:45:05.065Z,4.80
2023-04-23T18:47:57.672Z,5.10
2023-04-23T18:50:27.392Z,5.00
2023-04-23T18:52:54.939Z,5.50
2023-04-23T18:55:21.564Z,6.00
2023-04-23T18:57:48.308Z,5.50
2023-04-23T19:00:15.274Z,3.90
2023-04-23T19:02:42.040Z,4.00
2023-04-23T19:05:09.337Z,4.30
2023-04-23T19:07:39.630Z,4.70
2023-04-23T19:10:07.273Z,5.50
2023-04-23T19:12:34.103Z,5.70
2023-04-23T19:15:00.714Z,5.80
2023-04-23T19:17:27.438Z,5.20
2023-04-23T19:19:54.113Z,5.20
2023-04-23T19:22:24.346Z,5.80
2023-04-23T19:24:51.066Z,5.50
2023-04-23T19:27:17.671Z,5.40
2023-04-23T19:29:45.837Z,4.80
2023-04-23T19:32:12.724Z,6.00
2023-04-23T19:34:39.961Z,6.10
2023-04-23T19:37:06.756Z,5.30
2023-04-23T19:39:34.043Z,6.30
2023-04-23T19:42:01.996Z,6.90
2023-04-23T19:44:28.997Z,7.00
2023-04-23T19:46:55.930Z,6.70
2023-04-23T19:49:22.590Z,6.80
2023-04-23T19:51:53.711Z,5.90
2023-04-23T19:54:21.449Z,6.30
2023-04-23T19:56:49.572Z,5.80
2023-04-23T19:59:20.225Z,7.30
2023-04-23T20:01:47.631Z,6.20
2023-04-23T20:04:14.556Z,6.40
2023-04-23T20:06:41.364Z,6.30
2023-04-23T20:09:17.151Z,6.00
2023-04-23T20:14:14.271Z,5.50
2023-04-23T20:16:41.106Z,6.50
2023-04-23T20:19:10.777Z,5.40
2023-04-23T20:21:38.267Z,5.60
2023-04-23T20:24:11.678Z,5.40
2023-04-23T20:26:39.235Z,5.40
2023-04-23T20:29:06.115Z,5.70
2023-04-23T20:31:33.439Z,6.20
2023-04-23T20:34:00.432Z,5.60
2023-04-23T20:36:32.609Z,6.00
2023-04-23T20:39:00.423Z,6.20
2023-04-23T20:41:30.651Z,6.10
2023-04-23T20:43:57.939Z,6.30
2023-04-23T20:46:25.298Z,6.00
2023-04-23T20:48:54.961Z,6.20
2023-04-23T20:51:22.587Z,6.20
2023-04-23T20:53:50.488Z,6.20
2023-04-23T20:56:17.632Z,6.40
2023-04-23T20:58:44.337Z,6.30
2023-04-23T21:01:11.159Z,5.80
2023-04-23T21:03:38.456Z,6.20
2023-04-23T21:06:06.204Z,6.30
2023-04-23T21:08:33.357Z,6.90
2023-04-23T21:11:00.073Z,6.50
2023-04-23T21:13:26.738Z,6.20
2023-04-23T21:15:53.573Z,6.30
2023-04-23T21:18:20.267Z,6.20
2023-04-23T21:20:46.951Z,6.10
2023-04-23T21:23:13.839Z,6.30
2023-04-23T21:25:40.513Z,6.40
2023-04-23T21:28:07.213Z,6.50
2023-04-23T21:30:50.298Z,6.80
2023-04-23T21:33:18.436Z,6.50
2023-04-23T21:35:45.186Z,6.20
2023-04-23T21:38:11.907Z,6.50
2023-04-23T21:40:38.940Z,6.90
2023-04-23T21:43:06.189Z,6.20
2023-04-23T21:45:33.266Z,6.80
2023-04-23T21:48:00.080Z,6.40
2023-04-23T21:50:27.634Z,7.00
2023-04-23T21:52:57.864Z,6.50
2023-04-23T21:55:25.655Z,7.20
2023-04-23T21:57:52.770Z,6.60
2023-04-23T22:00:20.517Z,7.00
2023-04-23T22:02:47.366Z,6.30
2023-04-23T22:05:21.119Z,6.40
2023-04-23T22:07:48.687Z,5.60
2023-04-23T22:10:16.019Z,5.90
2023-04-23T22:12:42.976Z,6.10
2023-04-23T22:15:12.432Z,7.30
2023-04-23T22:17:39.391Z,6.10
2023-04-23T22:20:07.039Z,6.20
2023-04-23T22:22:34.265Z,6.40
2023-04-23T22:25:01.609Z,6.20
2023-04-23T22:27:28.502Z,5.70
2023-04-23T22:29:55.188Z,6.00
2023-04-23T22:32:21.815Z,6.10
2023-04-23T22:34:48.509Z,6.00
2023-04-23T22:37:15.206Z,6.40
2023-04-23T22:39:42.124Z,6.70
2023-04-23T22:42:09.142Z,6.50
2023-04-23T22:44:37.153Z,5.90
2023-04-23T22:47:04.690Z,6.50
2023-04-23T22:49:32.404Z,6.20
2023-04-23T22:51:59.180Z,7.20
2023-04-23T22:54:26.611Z,6.40
2023-04-23T22:56:53.401Z,6.70
2023-04-23T22:59:20.544Z,6.90
2023-04-23T23:01:47.446Z,6.20
2023-04-23T23:04:14.229Z,6.30
2023-04-23T23:06:42.436Z,6.00
2023-04-23T23:09:09.668Z,7.00
2023-04-23T23:11:36.364Z,7.60
2023-04-23T23:14:03.734Z,7.00
2023-04-23T23:16:30.516Z,6.30
2023-04-23T23:18:57.610Z,6.90
2023-04-23T23:21:24.449Z,7.30
2023-04-23T23:23:51.314Z,8.10
2023-04-23T23:26:18.106Z,7.20
2023-04-23T23:28:44.787Z,7.50
2023-04-23T23:31:11.669Z,7.10
2023-04-23T23:33:39.068Z,7.40
2023-04-23T23:36:08.018Z,7.60
2023-04-23T23:50:08.888Z,8.20
2023-04-23T23:52:35.706Z,7.70
2023-04-23T23:55:02.637Z,7.10
2023-04-23T23:57:29.505Z,6.90
2023-04-23T23:59:57.085Z,7.90
